Time;durP1;ratioP1;P1;durP2;ratioP2;P2;SDS_P1;SDS_P2;PMS_P1;PMS_P2;Temp;Humidity;BMP_temperature;BMP_pressure;BME280_temperature;BME280_humidity;BME280_pressure;Samples;Min_cycle;Max_cycle;Signal;HPM_P1;HPM_P2
2023/03/12 00:03:09;;;;;;;42.33;19.73;;;;;;;;;;10434184;28;20033;-82
2023/03/12 00:08:10;;;;;;;45.77;23.77;;;;;;;;;;10411924;28;20030;-82
2023/03/12 00:13:11;;;;;;;21.00;10.80;;;;;;;;;;10388544;28;20029;-81
2023/03/12 00:18:12;;;;;;;21.53;10.63;;;;;;;;;;10390776;28;20037;-82
2023/03/12 00:23:14;;;;;;;28.53;13.03;;;;;;;;;;10391235;28;20025;-82
2023/03/12 00:28:15;;;;;;;21.87;10.33;;;;;;;;;;10386434;28;20041;-82
2023/03/12 00:33:19;;;;;;;22.23;12.10;;;;;;;;;;10385001;28;20614;-82
2023/03/12 00:38:20;;;;;;;22.30;9.80;;;;;;;;;;10386931;28;20129;-82
2023/03/12 00:43:21;;;;;;;23.07;10.60;;;;;;;;;;10394690;28;20045;-81
2023/03/12 00:48:22;;;;;;;37.30;15.27;;;;;;;;;;10384111;28;20041;-81
2023/03/12 00:53:23;;;;;;;26.67;13.17;;;;;;;;;;10382599;28;20751;-81
2023/03/12 00:58:26;;;;;;;25.03;11.87;;;;;;;;;;10386787;28;20049;-82
2023/03/12 01:03:29;;;;;;;30.47;13.50;;;;;;;;;;10383901;28;20052;-81
2023/03/12 01:08:31;;;;;;;30.13;12.53;;;;;;;;;;10388800;28;20041;-81
2023/03/12 01:13:32;;;;;;;33.53;14.63;;;;;;;;;;10375044;28;20560;-81
2023/03/12 01:18:33;;;;;;;45.83;18.87;;;;;;;;;;10365367;28;20025;-81
2023/03/12 01:23:34;;;;;;;44.23;19.23;;;;;;;;;;10401811;28;20418;-82
2023/03/12 01:28:35;;;;;;;44.63;18.50;;;;;;;;;;10403542;28;20029;-81
2023/03/12 01:33:36;;;;;;;41.43;18.13;;;;;;;;;;10386883;28;20050;-81
2023/03/12 01:38:37;;;;;;;41.57;20.33;;;;;;;;;;10388463;28;20036;-82
2023/03/12 01:43:40;;;;;;;44.20;19.60;;;;;;;;;;10387258;28;20041;-81
2023/03/12 01:48:44;;;;;;;43.53;20.53;;;;;;;;;;10398290;28;20051;-81
2023/03/12 01:53:46;;;;;;;46.80;17.97;;;;;;;;;;10402304;28;20061;-82
2023/03/12 01:58:50;;;;;;;38.10;16.80;;;;;;;;;;10401916;28;20034;-81
2023/03/12 02:03:52;;;;;;;39.37;17.57;;;;;;;;;;10401644;28;20045;-81
2023/03/12 02:08:53;;;;;;;33.30;16.13;;;;;;;;;;10405718;28;20118;-81
2023/03/12 02:13:58;;;;;;;36.07;16.27;;;;;;;;;;10402575;28;20025;-81
2023/03/12 02:19:00;;;;;;;37.20;17.20;;;;;;;;;;10372021;28;20055;-81
2023/03/12 02:24:06;;;;;;;39.67;18.27;;;;;;;;;;10376671;28;20779;-81
2023/03/12 02:29:08;;;;;;;41.75;17.58;;;;;;;;;;10392847;28;20041;-81
2023/03/12 02:34:09;;;;;;;40.27;18.23;;;;;;;;;;10388618;28;20049;-81
2023/03/12 02:39:11;;;;;;;40.67;17.83;;;;;;;;;;10392819;28;20034;-81
2023/03/12 02:44:14;;;;;;;40.23;18.77;;;;;;;;;;10380953;28;20402;-81
2023/03/12 02:49:15;;;;;;;35.87;17.40;;;;;;;;;;10391327;28;20128;-81
2023/03/12 02:54:17;;;;;;;40.73;18.83;;;;;;;;;;10394247;28;20366;-81
2023/03/12 02:59:20;;;;;;;41.23;17.67;;;;;;;;;;10400584;28;20026;-81
2023/03/12 03:04:22;;;;;;;37.47;16.80;;;;;;;;;;10400662;28;20167;-81
2023/03/12 03:09:24;;;;;;;33.20;16.97;;;;;;;;;;10395211;28;20029;-81
2023/03/12 03:14:25;;;;;;;37.30;17.13;;;;;;;;;;10393309;28;20095;-81
2023/03/12 03:19:27;;;;;;;40.67;18.80;;;;;;;;;;10391461;28;20053;-81
2023/03/12 03:24:28;;;;;;;42.30;19.60;;;;;;;;;;10391059;28;20041;-80
2023/03/12 03:29:29;;;;;;;40.00;19.13;;;;;;;;;;10394152;28;20513;-80
2023/03/12 03:34:30;;;;;;;43.97;21.20;;;;;;;;;;10381412;28;20107;-81
2023/03/12 03:39:31;;;;;;;50.53;22.20;;;;;;;;;;10386200;28;20439;-80
2023/03/12 03:44:32;;;;;;;47.90;21.47;;;;;;;;;;10400267;28;20037;-80
2023/03/12 03:49:33;;;;;;;44.97;21.97;;;;;;;;;;10392946;28;20025;-80
2023/03/12 03:54:34;;;;;;;45.57;20.67;;;;;;;;;;10394550;28;20064;-80
2023/03/12 03:59:36;;;;;;;43.47;19.57;;;;;;;;;;10393622;28;20025;-80
2023/03/12 04:04:37;;;;;;;41.13;19.83;;;;;;;;;;10375206;28;20047;-80
2023/03/12 04:09:38;;;;;;;42.63;18.87;;;;;;;;;;10396061;28;20024;-80
2023/03/12 04:14:40;;;;;;;47.00;20.80;;;;;;;;;;10398911;28;20013;-80
2023/03/12 04:19:41;;;;;;;38.77;19.03;;;;;;;;;;10386370;28;20058;-80
2023/03/12 04:24:42;;;;;;;44.47;17.60;;;;;;;;;;10399789;28;20045;-80
2023/03/12 04:29:44;;;;;;;32.27;14.53;;;;;;;;;;10390306;28;20025;-81
2023/03/12 04:34:45;;;;;;;40.53;18.47;;;;;;;;;;10377055;28;20054;-80
2023/03/12 04:39:46;;;;;;;32.20;15.47;;;;;;;;;;10383257;28;20029;-80
2023/03/12 04:44:47;;;;;;;41.43;16.70;;;;;;;;;;10402860;28;20045;-80
2023/03/12 04:49:48;;;;;;;38.20;18.27;;;;;;;;;;10393127;28;20590;-80
2023/03/12 04:54:49;;;;;;;43.87;19.50;;;;;;;;;;10396768;28;20041;-80
2023/03/12 04:59:50;;;;;;;40.60;18.33;;;;;;;;;;10375736;28;20052;-80
2023/03/12 05:04:51;;;;;;;40.97;17.40;;;;;;;;;;10368555;28;20045;-82
2023/03/12 05:09:52;;;;;;;38.80;16.83;;;;;;;;;;10359462;28;20624;-81
2023/03/12 05:14:53;;;;;;;37.67;16.47;;;;;;;;;;10382190;28;20030;-80
2023/03/12 05:19:54;;;;;;;29.47;14.03;;;;;;;;;;10375434;28;20083;-80
2023/03/12 05:24:55;;;;;;;30.07;13.30;;;;;;;;;;10374439;28;20068;-80
2023/03/12 05:29:56;;;;;;;59.00;22.73;;;;;;;;;;10361458;28;20061;-80
2023/03/12 05:34:57;;;;;;;46.00;21.10;;;;;;;;;;10374886;28;20489;-80
2023/03/12 05:39:59;;;;;;;34.23;13.33;;;;;;;;;;10380650;28;20095;-79
2023/03/12 05:45:00;;;;;;;23.63;10.70;;;;;;;;;;10380033;28;20029;-81
2023/03/12 05:50:01;;;;;;;63.17;19.17;;;;;;;;;;10361816;28;20491;-81
2023/03/12 05:55:02;;;;;;;54.57;18.30;;;;;;;;;;10373731;28;20040;-80
2023/03/12 06:00:04;;;;;;;32.17;15.43;;;;;;;;;;10364969;28;20041;-80
2023/03/12 06:05:05;;;;;;;40.43;16.13;;;;;;;;;;10389629;28;20634;-82
2023/03/12 06:10:06;;;;;;;64.83;24.80;;;;;;;;;;10373684;28;20528;-80
2023/03/12 06:15:07;;;;;;;30.23;12.33;;;;;;;;;;10380608;28;20060;-81
2023/03/12 06:20:09;;;;;;;29.73;11.87;;;;;;;;;;10379392;28;20029;-81
2023/03/12 06:25:10;;;;;;;37.57;14.50;;;;;;;;;;10400386;28;20047;-80
2023/03/12 06:30:11;;;;;;;20.40;10.87;;;;;;;;;;10393637;28;20240;-81
2023/03/12 06:35:12;;;;;;;29.53;11.33;;;;;;;;;;10393620;28;20053;-82
2023/03/12 06:40:13;;;;;;;25.40;10.10;;;;;;;;;;10397620;28;20118;-81
2023/03/12 06:45:15;;;;;;;23.33;9.60;;;;;;;;;;10375563;28;20125;-81
2023/03/12 06:50:16;;;;;;;17.53;7.50;;;;;;;;;;10400873;28;20022;-80
2023/03/12 06:55:17;;;;;;;18.57;8.77;;;;;;;;;;10398337;28;20464;-82
2023/03/12 07:00:18;;;;;;;18.13;8.73;;;;;;;;;;10370468;28;20036;-81
2023/03/12 07:05:19;;;;;;;11.63;5.63;;;;;;;;;;10364015;28;20100;-82
2023/03/12 07:10:20;;;;;;;14.30;7.43;;;;;;;;;;10359186;28;20034;-82
2023/03/12 07:15:21;;;;;;;25.20;10.73;;;;;;;;;;10371539;28;20034;-81
2023/03/12 07:20:23;;;;;;;17.13;7.93;;;;;;;;;;10375401;28;20121;-82
2023/03/12 07:25:24;;;;;;;17.83;8.37;;;;;;;;;;10364504;28;20034;-82
2023/03/12 07:30:26;;;;;;;29.23;12.20;;;;;;;;;;10364508;28;20038;-83
2023/03/12 07:35:27;;;;;;;24.10;9.23;;;;;;;;;;10369915;28;20870;-82
2023/03/12 07:40:28;;;;;;;22.23;9.43;;;;;;;;;;10368123;28;20029;-84
2023/03/12 07:45:30;;;;;;;18.60;7.43;;;;;;;;;;10354183;28;20068;-86
2023/03/12 07:50:31;;;;;;;16.43;6.97;;;;;;;;;;10363187;28;20033;-85
2023/03/12 07:55:33;;;;;;;18.57;8.03;;;;;;;;;;10379319;28;20512;-85
2023/03/12 08:00:34;;;;;;;14.67;6.40;;;;;;;;;;10375764;28;20034;-85
2023/03/12 08:05:35;;;;;;;14.43;6.90;;;;;;;;;;10378125;28;20131;-87
2023/03/12 08:10:36;;;;;;;20.43;9.30;;;;;;;;;;10374243;28;20034;-84
2023/03/12 08:15:37;;;;;;;17.67;8.57;;;;;;;;;;10383842;28;20386;-85
2023/03/12 08:20:38;;;;;;;13.13;7.30;;;;;;;;;;10375014;28;20041;-88
2023/03/12 08:25:39;;;;;;;26.17;10.80;;;;;;;;;;10380394;28;20049;-86
2023/03/12 08:30:45;;;;;;;21.77;8.53;;;;;;;;;;10366001;28;20119;-88
2023/03/12 08:35:46;;;;;;;17.77;7.93;;;;;;;;;;10385888;28;20049;-86
2023/03/12 08:40:54;;;;;;;15.27;6.83;;;;;;;;;;10362145;28;20065;-86
2023/03/12 08:45:55;;;;;;;16.73;7.43;;;;;;;;;;10376034;28;20029;-86
2023/03/12 08:50:57;;;;;;;26.63;10.50;;;;;;;;;;10371216;28;20049;-84
2023/03/12 08:55:58;;;;;;;23.40;12.13;;;;;;;;;;10366917;28;20084;-84
2023/03/12 09:00:59;;;;;;;25.10;12.00;;;;;;;;;;10360722;28;20065;-86
2023/03/12 09:06:12;;;;;;;17.40;7.97;;;;;;;;;;10373280;28;20042;-85
2023/03/12 09:11:13;;;;;;;15.90;5.77;;;;;;;;;;10373194;28;20029;-83
2023/03/12 09:16:14;;;;;;;21.63;9.63;;;;;;;;;;10363779;28;20026;-83
2023/03/12 09:21:15;;;;;;;16.30;8.07;;;;;;;;;;10364697;28;20734;-82
2023/03/12 09:26:16;;;;;;;11.90;5.43;;;;;;;;;;10377013;28;20258;-83
2023/03/12 09:31:17;;;;;;;14.10;6.60;;;;;;;;;;10376910;28;20042;-83
2023/03/12 09:36:18;;;;;;;13.53;6.40;;;;;;;;;;10361879;28;20046;-82
2023/03/12 09:41:21;;;;;;;24.70;10.27;;;;;;;;;;10365503;28;20125;-82
2023/03/12 09:46:24;;;;;;;18.93;8.07;;;;;;;;;;10385683;28;20501;-83
2023/03/12 09:51:33;;;;;;;26.57;9.53;;;;;;;;;;10389926;28;20072;-83
2023/03/12 09:56:34;;;;;;;14.93;5.63;;;;;;;;;;10370723;28;20052;-84
2023/03/12 10:01:41;;;;;;;14.40;7.20;;;;;;;;;;10367345;28;20094;-84
2023/03/12 10:06:45;;;;;;;11.23;5.73;;;;;;;;;;10356205;28;20103;-84
2023/03/12 10:11:58;;;;;;;14.87;5.50;;;;;;;;;;10378871;28;20133;-84
2023/03/12 10:17:02;;;;;;;14.50;6.70;;;;;;;;;;10381440;28;20034;-83
2023/03/12 10:22:04;;;;;;;14.73;5.80;;;;;;;;;;10380693;28;20481;-83
2023/03/12 10:27:10;;;;;;;13.33;5.93;;;;;;;;;;10374126;28;20501;-83
2023/03/12 10:32:21;;;;;;;14.27;6.87;;;;;;;;;;10376749;28;20668;-84
2023/03/12 10:37:22;;;;;;;18.17;8.07;;;;;;;;;;10373980;28;20053;-85
2023/03/12 10:42:25;;;;;;;17.10;6.90;;;;;;;;;;10369761;28;20030;-85
2023/03/12 10:47:34;;;;;;;11.17;5.63;;;;;;;;;;10383564;28;20570;-87
2023/03/12 10:52:35;;;;;;;20.47;10.60;;;;;;;;;;10366633;28;20022;-84
2023/03/12 10:57:40;;;;;;;16.30;7.33;;;;;;;;;;10375972;28;20802;-83
2023/03/12 11:02:44;;;;;;;31.03;13.07;;;;;;;;;;10375960;28;20034;-85
2023/03/12 11:07:45;;;;;;;12.10;5.53;;;;;;;;;;10367440;28;20034;-84
2023/03/12 11:12:54;;;;;;;10.63;4.33;;;;;;;;;;10377165;28;20494;-82
2023/03/12 11:18:23;;;;;;;6.57;3.00;;;;;;;;;;10373604;28;20034;-82
2023/03/12 11:23:29;;;;;;;16.03;5.13;;;;;;;;;;10359524;28;20045;-86
2023/03/12 11:28:36;;;;;;;12.70;4.63;;;;;;;;;;10368387;28;20061;-85
2023/03/12 11:33:37;;;;;;;16.37;6.23;;;;;;;;;;10374299;28;20474;-86
2023/03/12 11:38:41;;;;;;;16.33;6.20;;;;;;;;;;10361231;28;20025;-85
2023/03/12 11:44:00;;;;;;;10.47;4.53;;;;;;;;;;10366222;28;20053;-86
2023/03/12 11:49:16;;;;;;;18.10;8.53;;;;;;;;;;10366874;28;20587;-84
2023/03/12 11:54:17;;;;;;;20.10;7.60;;;;;;;;;;10364969;28;20040;-83
2023/03/12 11:59:28;;;;;;;22.90;9.50;;;;;;;;;;10371392;28;20049;-84
2023/03/12 12:04:41;;;;;;;12.00;5.83;;;;;;;;;;10369282;28;20046;-82
2023/03/12 12:09:50;;;;;;;10.40;4.87;;;;;;;;;;10362510;28;20032;-85
2023/03/12 12:15:21;;;;;;;20.47;8.70;;;;;;;;;;10355886;28;20468;-85
2023/03/12 12:20:41;;;;;;;18.73;8.73;;;;;;;;;;10372115;22;20146;-84
2023/03/12 12:25:49;;;;;;;15.30;8.43;;;;;;;;;;10360394;28;20037;-83
2023/03/12 12:30:53;;;;;;;16.47;8.07;;;;;;;;;;10376043;28;20060;-81
2023/03/12 12:35:54;;;;;;;13.83;5.60;;;;;;;;;;10381276;28;20033;-82
2023/03/12 12:40:58;;;;;;;12.83;5.30;;;;;;;;;;10371241;28;20094;-82
2023/03/12 12:46:01;;;;;;;9.03;4.60;;;;;;;;;;10381338;28;20040;-81
2023/03/12 12:51:03;;;;;;;19.00;8.13;;;;;;;;;;10367820;28;20026;-82
2023/03/12 12:56:15;;;;;;;22.47;8.80;;;;;;;;;;10379343;28;20029;-81
2023/03/12 13:01:16;;;;;;;24.87;9.50;;;;;;;;;;10358182;28;20032;-82
2023/03/12 13:06:17;;;;;;;17.40;7.07;;;;;;;;;;10351360;28;20038;-85
2023/03/12 13:11:24;;;;;;;18.13;7.43;;;;;;;;;;10354072;28;20037;-82
2023/03/12 13:16:32;;;;;;;13.77;5.87;;;;;;;;;;10357459;28;20034;-82
2023/03/12 13:21:33;;;;;;;14.63;7.03;;;;;;;;;;10368481;28;20026;-81
2023/03/12 13:26:47;;;;;;;18.27;9.27;;;;;;;;;;10368050;28;20490;-84
2023/03/12 13:31:48;;;;;;;16.10;7.10;;;;;;;;;;10361096;28;20045;-82
2023/03/12 13:36:58;;;;;;;29.20;10.30;;;;;;;;;;10363427;28;20033;-83
2023/03/12 13:42:00;;;;;;;17.63;7.63;;;;;;;;;;10367002;28;20022;-84
2023/03/12 13:47:06;;;;;;;20.63;9.27;;;;;;;;;;10358270;28;20165;-82
2023/03/12 13:52:16;;;;;;;12.93;5.80;;;;;;;;;;10361878;28;20041;-83
2023/03/12 13:57:25;;;;;;;14.50;7.87;;;;;;;;;;10367417;28;20034;-83
2023/03/12 14:02:31;;;;;;;12.53;7.53;;;;;;;;;;10364139;28;20117;-82
2023/03/12 14:07:39;;;;;;;11.77;5.70;;;;;;;;;;10362489;28;20150;-83
2023/03/12 14:12:57;;;;;;;12.20;6.10;;;;;;;;;;10367108;28;20032;-82
2023/03/12 14:18:01;;;;;;;12.03;6.27;;;;;;;;;;10365224;28;20057;-83
2023/03/12 14:23:04;;;;;;;20.93;7.77;;;;;;;;;;10366740;28;20132;-81
2023/03/12 14:28:11;;;;;;;25.20;9.17;;;;;;;;;;10367080;28;20104;-82
2023/03/12 14:33:14;;;;;;;41.43;16.40;;;;;;;;;;10361007;28;20038;-83
2023/03/12 14:38:22;;;;;;;18.63;8.50;;;;;;;;;;10366221;28;20030;-82
2023/03/12 14:43:26;;;;;;;8.83;4.40;;;;;;;;;;10366433;28;20386;-83
2023/03/12 14:48:35;;;;;;;15.13;6.47;;;;;;;;;;10363540;28;20516;-81
2023/03/12 14:53:38;;;;;;;20.47;8.17;;;;;;;;;;10365841;28;20037;-81
2023/03/12 14:58:44;;;;;;;12.37;6.67;;;;;;;;;;10364767;28;20382;-84
2023/03/12 15:03:53;;;;;;;14.23;7.10;;;;;;;;;;10364552;28;20050;-82
2023/03/12 15:08:54;;;;;;;26.40;13.00;;;;;;;;;;10358045;28;20070;-83
2023/03/12 15:13:56;;;;;;;20.93;11.43;;;;;;;;;;10364537;28;20549;-83
2023/03/12 15:18:57;;;;;;;40.87;15.60;;;;;;;;;;10358581;28;20064;-86
2023/03/12 15:23:58;;;;;;;34.67;15.23;;;;;;;;;;10360223;28;20528;-83
2023/03/12 15:29:01;;;;;;;27.30;12.40;;;;;;;;;;10359056;28;20032;-80
2023/03/12 15:34:03;;;;;;;21.87;10.23;;;;;;;;;;10365330;28;20028;-82
2023/03/12 15:39:12;;;;;;;26.70;12.57;;;;;;;;;;10373606;28;20481;-81
2023/03/12 15:44:36;;;;;;;30.80;13.10;;;;;;;;;;10368582;28;20406;-82
2023/03/12 15:49:38;;;;;;;26.70;13.30;;;;;;;;;;10359048;28;20103;-82
2023/03/12 15:54:39;;;;;;;42.47;18.60;;;;;;;;;;10361823;28;20026;-83
2023/03/12 15:59:40;;;;;;;29.70;14.40;;;;;;;;;;10362505;28;20030;-81
2023/03/12 16:04:41;;;;;;;20.67;10.97;;;;;;;;;;10363489;28;20474;-82
2023/03/12 16:09:42;;;;;;;23.67;10.43;;;;;;;;;;10360927;28;20517;-82
2023/03/12 16:14:44;;;;;;;19.50;10.10;;;;;;;;;;10375032;28;20052;-81
2023/03/12 16:19:45;;;;;;;30.17;14.50;;;;;;;;;;10365180;28;20061;-81
2023/03/12 16:24:46;;;;;;;21.50;10.60;;;;;;;;;;10362186;28;20449;-81
2023/03/12 16:29:47;;;;;;;19.47;9.33;;;;;;;;;;10347915;28;20083;-81
2023/03/12 16:34:48;;;;;;;28.03;12.60;;;;;;;;;;10361942;28;20034;-79
2023/03/12 16:39:49;;;;;;;18.60;8.90;;;;;;;;;;10362161;28;20116;-81
2023/03/12 16:44:50;;;;;;;24.37;11.77;;;;;;;;;;10361104;28;20041;-80
2023/03/12 16:49:51;;;;;;;22.10;11.23;;;;;;;;;;10361396;28;20121;-81
2023/03/12 16:54:52;;;;;;;24.80;10.90;;;;;;;;;;10360517;28;20034;-83
2023/03/12 16:59:53;;;;;;;22.27;11.17;;;;;;;;;;10359697;28;20356;-84
2023/03/12 17:04:55;;;;;;;20.03;9.47;;;;;;;;;;10354920;28;20045;-83
2023/03/12 17:09:56;;;;;;;26.27;11.97;;;;;;;;;;10359933;28;20087;-80
2023/03/12 17:14:58;;;;;;;24.67;11.70;;;;;;;;;;10361072;28;20038;-81
2023/03/12 17:19:59;;;;;;;115.13;56.93;;;;;;;;;;10373080;28;20050;-83
2023/03/12 17:25:00;;;;;;;44.77;21.73;;;;;;;;;;10360815;28;20100;-82
2023/03/12 17:30:01;;;;;;;28.73;14.47;;;;;;;;;;10359743;28;20033;-81
2023/03/12 17:35:05;;;;;;;25.30;13.10;;;;;;;;;;10372423;28;20564;-79
2023/03/12 17:40:08;;;;;;;47.07;18.30;;;;;;;;;;10361114;28;20030;-81
2023/03/12 17:45:09;;;;;;;50.27;19.87;;;;;;;;;;10355227;28;20565;-81
2023/03/12 17:50:10;;;;;;;31.33;15.33;;;;;;;;;;10358606;28;20014;-80
2023/03/12 17:55:11;;;;;;;30.23;17.03;;;;;;;;;;10360791;28;20425;-82
2023/03/12 18:00:13;;;;;;;72.77;32.13;;;;;;;;;;10358467;28;20257;-81
2023/03/12 18:05:14;;;;;;;56.33;23.80;;;;;;;;;;10363994;28;20041;-81
2023/03/12 18:10:15;;;;;;;35.87;16.27;;;;;;;;;;10367363;28;20034;-83
2023/03/12 18:15:16;;;;;;;51.13;21.33;;;;;;;;;;10367003;28;20034;-79
2023/03/12 18:20:17;;;;;;;67.27;25.63;;;;;;;;;;10377302;28;20060;-79
2023/03/12 18:25:19;;;;;;;82.07;28.97;;;;;;;;;;10364999;28;20153;-80
2023/03/12 18:30:20;;;;;;;37.97;16.30;;;;;;;;;;10364409;28;20026;-79
2023/03/12 18:35:21;;;;;;;117.30;41.27;;;;;;;;;;10366083;28;20088;-84
2023/03/12 18:40:23;;;;;;;128.17;53.10;;;;;;;;;;10366505;28;20034;-83
2023/03/12 18:45:24;;;;;;;77.37;26.73;;;;;;;;;;10365637;28;20145;-82
2023/03/12 18:50:25;;;;;;;65.57;25.70;;;;;;;;;;10366370;28;20167;-81
2023/03/12 18:55:26;;;;;;;76.67;29.93;;;;;;;;;;10364248;28;20026;-81
2023/03/12 19:00:27;;;;;;;88.13;30.67;;;;;;;;;;10363836;28;20038;-80
2023/03/12 19:05:28;;;;;;;71.23;25.37;;;;;;;;;;10361402;28;20046;-81
2023/03/12 19:10:29;;;;;;;45.90;20.97;;;;;;;;;;10365034;28;20104;-82
2023/03/12 19:15:30;;;;;;;61.63;23.30;;;;;;;;;;10361197;28;20440;-80
2023/03/12 19:20:31;;;;;;;38.30;19.23;;;;;;;;;;10359316;28;20054;-81
2023/03/12 19:25:32;;;;;;;74.50;27.80;;;;;;;;;;10361133;28;20539;-82
2023/03/12 19:30:33;;;;;;;53.90;23.90;;;;;;;;;;10364941;28;20026;-81
2023/03/12 19:35:37;;;;;;;51.70;19.23;;;;;;;;;;10363000;28;20041;-81
2023/03/12 19:40:38;;;;;;;51.37;22.83;;;;;;;;;;10364065;28;20030;-81
2023/03/12 19:45:39;;;;;;;35.13;15.50;;;;;;;;;;10363249;28;20069;-81
2023/03/12 19:50:42;;;;;;;32.23;14.03;;;;;;;;;;10363462;28;20207;-80
2023/03/12 19:55:47;;;;;;;31.73;12.30;;;;;;;;;;10356577;28;20038;-80
2023/03/12 20:00:48;;;;;;;26.33;12.40;;;;;;;;;;10378718;28;20030;-79
2023/03/12 20:05:49;;;;;;;17.97;8.43;;;;;;;;;;10363220;28;20042;-82
2023/03/12 20:10:50;;;;;;;21.90;10.17;;;;;;;;;;10360899;28;20057;-81
2023/03/12 20:15:51;;;;;;;25.13;12.17;;;;;;;;;;10362048;28;20826;-80
2023/03/12 20:20:52;;;;;;;18.93;9.40;;;;;;;;;;10356043;28;20050;-79
2023/03/12 20:25:53;;;;;;;17.43;9.27;;;;;;;;;;10362608;28;20736;-80
2023/03/12 20:30:54;;;;;;;19.20;8.33;;;;;;;;;;10355081;28;20042;-80
2023/03/12 20:35:55;;;;;;;17.13;8.33;;;;;;;;;;10355449;28;20041;-82
2023/03/12 20:40:56;;;;;;;22.83;9.17;;;;;;;;;;10361805;28;20037;-82
2023/03/12 20:45:57;;;;;;;29.20;13.43;;;;;;;;;;10361622;28;20585;-84
2023/03/12 20:50:59;;;;;;;21.43;9.70;;;;;;;;;;10361849;28;20029;-82
2023/03/12 20:56:00;;;;;;;24.13;9.80;;;;;;;;;;10358352;28;20622;-80
2023/03/12 21:01:01;;;;;;;18.17;8.83;;;;;;;;;;10361751;28;20034;-82
2023/03/12 21:06:02;;;;;;;23.53;9.43;;;;;;;;;;10356303;28;20096;-81
2023/03/12 21:11:07;;;;;;;21.67;10.30;;;;;;;;;;10359977;28;20490;-82
2023/03/12 21:16:09;;;;;;;22.47;9.73;;;;;;;;;;10360337;28;20105;-80
2023/03/12 21:21:11;;;;;;;20.67;9.57;;;;;;;;;;10360758;28;20042;-82
2023/03/12 21:26:12;;;;;;;21.60;9.50;;;;;;;;;;10360469;28;20041;-82
2023/03/12 21:31:14;;;;;;;21.50;9.43;;;;;;;;;;10361235;28;20504;-82
2023/03/12 21:36:15;;;;;;;19.43;8.80;;;;;;;;;;10361467;28;20440;-80
2023/03/12 21:41:17;;;;;;;31.93;12.63;;;;;;;;;;10365522;28;20068;-82
2023/03/12 21:46:23;;;;;;;31.17;12.83;;;;;;;;;;10368239;28;20046;-82
2023/03/12 21:51:24;;;;;;;34.97;13.13;;;;;;;;;;10367523;28;20038;-80
2023/03/12 21:56:27;;;;;;;31.70;13.70;;;;;;;;;;10368633;28;20038;-82
2023/03/12 22:01:28;;;;;;;28.10;12.03;;;;;;;;;;10367951;28;20029;-81
2023/03/12 22:06:29;;;;;;;35.10;15.60;;;;;;;;;;10367123;28;20044;-81
2023/03/12 22:11:30;;;;;;;33.17;13.03;;;;;;;;;;10367988;28;20026;-82
2023/03/12 22:16:31;;;;;;;34.03;14.73;;;;;;;;;;10365163;28;20037;-83
2023/03/12 22:21:32;;;;;;;37.43;14.30;;;;;;;;;;10367577;28;20133;-82
2023/03/12 22:26:33;;;;;;;31.47;13.50;;;;;;;;;;10367478;28;20046;-83
2023/03/12 22:31:34;;;;;;;45.17;17.33;;;;;;;;;;10365378;28;20034;-82
2023/03/12 22:36:35;;;;;;;42.83;15.20;;;;;;;;;;10367549;28;20100;-83
2023/03/12 22:41:36;;;;;;;41.17;16.60;;;;;;;;;;10367015;28;20708;-80
2023/03/12 22:46:37;;;;;;;30.57;13.00;;;;;;;;;;10366910;28;20040;-81
2023/03/12 22:51:38;;;;;;;36.43;16.17;;;;;;;;;;10364620;28;20494;-81
2023/03/12 22:56:39;;;;;;;63.97;27.13;;;;;;;;;;10366400;28;20041;-80
2023/03/12 23:01:40;;;;;;;30.83;13.33;;;;;;;;;;10365630;28;20064;-82
2023/03/12 23:06:41;;;;;;;23.33;11.73;;;;;;;;;;10365532;28;20034;-83
2023/03/12 23:11:42;;;;;;;26.73;11.17;;;;;;;;;;10365524;28;20033;-82
2023/03/12 23:16:43;;;;;;;19.47;8.70;;;;;;;;;;10365434;28;20058;-81
2023/03/12 23:21:45;;;;;;;14.93;7.80;;;;;;;;;;10365440;28;20037;-80
2023/03/12 23:26:46;;;;;;;14.57;7.63;;;;;;;;;;10364804;28;20037;-80
2023/03/12 23:31:47;;;;;;;14.27;6.80;;;;;;;;;;10365801;28;20389;-82
2023/03/12 23:36:48;;;;;;;17.43;9.70;;;;;;;;;;10364180;28;20038;-83
2023/03/12 23:41:49;;;;;;;18.77;8.47;;;;;;;;;;10363852;28;20030;-82
2023/03/12 23:46:50;;;;;;;14.90;8.80;;;;;;;;;;10364066;28;20553;-80
2023/03/12 23:51:51;;;;;;;20.47;9.70;;;;;;;;;;10364026;28;20042;-83
2023/03/12 23:56:52;;;;;;;14.50;9.50;;;;;;;;;;10364800;28;20507;-79
